sensor_id;sensor_type;location;lat;lon;timestamp;temperature;humidity
32293;DHT22;43233;48.608;8.838;2023-08-30T00:01:33;13.40;86.40
32293;DHT22;43233;48.608;8.838;2023-08-30T00:03:59;13.40;86.50
32293;DHT22;43233;48.608;8.838;2023-08-30T00:06:24;13.40;86.70
32293;DHT22;43233;48.608;8.838;2023-08-30T00:08:50;13.40;86.50
32293;DHT22;43233;48.608;8.838;2023-08-30T00:11:16;13.40;86.80
32293;DHT22;43233;48.608;8.838;2023-08-30T00:13:42;13.30;87.00
32293;DHT22;43233;48.608;8.838;2023-08-30T00:16:07;13.30;87.20
32293;DHT22;43233;48.608;8.838;2023-08-30T00:18:33;13.30;87.50
32293;DHT22;43233;48.608;8.838;2023-08-30T00:20:59;13.30;87.70
32293;DHT22;43233;48.608;8.838;2023-08-30T00:23:24;13.30;87.70
32293;DHT22;43233;48.608;8.838;2023-08-30T00:25:50;13.30;87.80
32293;DHT22;43233;48.608;8.838;2023-08-30T00:28:16;13.30;87.90
32293;DHT22;43233;48.608;8.838;2023-08-30T00:30:41;13.30;87.80
32293;DHT22;43233;48.608;8.838;2023-08-30T00:33:07;13.30;88.00
32293;DHT22;43233;48.608;8.838;2023-08-30T00:35:33;13.30;88.00
32293;DHT22;43233;48.608;8.838;2023-08-30T00:37:58;13.30;88.00
32293;DHT22;43233;48.608;8.838;2023-08-30T00:40:25;13.30;87.80
32293;DHT22;43233;48.608;8.838;2023-08-30T00:42:51;13.20;87.80
32293;DHT22;43233;48.608;8.838;2023-08-30T00:45:16;13.20;88.10
32293;DHT22;43233;48.608;8.838;2023-08-30T00:47:42;13.20;88.40
32293;DHT22;43233;48.608;8.838;2023-08-30T00:50:08;13.20;88.40
32293;DHT22;43233;48.608;8.838;2023-08-30T00:52:35;13.20;88.50
32293;DHT22;43233;48.608;8.838;2023-08-30T00:55:00;13.20;88.70
32293;DHT22;43233;48.608;8.838;2023-08-30T00:57:26;13.10;88.80
32293;DHT22;43233;48.608;8.838;2023-08-30T00:59:53;13.10;89.00
32293;DHT22;43233;48.608;8.838;2023-08-30T01:02:19;13.10;88.90
32293;DHT22;43233;48.608;8.838;2023-08-30T01:04:45;13.10;88.90
32293;DHT22;43233;48.608;8.838;2023-08-30T01:07:11;13.20;88.90
32293;DHT22;43233;48.608;8.838;2023-08-30T01:09:37;13.20;89.10
32293;DHT22;43233;48.608;8.838;2023-08-30T01:12:20;13.20;88.40
32293;DHT22;43233;48.608;8.838;2023-08-30T01:15:02;13.10;88.50
32293;DHT22;43233;48.608;8.838;2023-08-30T01:17:32;13.10;88.40
32293;DHT22;43233;48.608;8.838;2023-08-30T01:20:04;13.10;88.40
32293;DHT22;43233;48.608;8.838;2023-08-30T01:23:01;13.10;88.30
32293;DHT22;43233;48.608;8.838;2023-08-30T01:28:13;13.00;88.10
32293;DHT22;43233;48.608;8.838;2023-08-30T01:30:42;13.00;88.30
32293;DHT22;43233;48.608;8.838;2023-08-30T01:33:09;13.00;88.50
32293;DHT22;43233;48.608;8.838;2023-08-30T01:35:35;12.90;88.50
32293;DHT22;43233;48.608;8.838;2023-08-30T01:38:06;12.90;88.50
32293;DHT22;43233;48.608;8.838;2023-08-30T01:40:36;12.90;88.60
32293;DHT22;43233;48.608;8.838;2023-08-30T01:43:03;12.90;88.50
32293;DHT22;43233;48.608;8.838;2023-08-30T01:45:35;12.90;88.50
32293;DHT22;43233;48.608;8.838;2023-08-30T01:48:02;12.80;88.50
32293;DHT22;43233;48.608;8.838;2023-08-30T01:50:28;12.80;88.50
32293;DHT22;43233;48.608;8.838;2023-08-30T01:52:54;12.70;88.70
32293;DHT22;43233;48.608;8.838;2023-08-30T01:55:22;12.70;89.20
32293;DHT22;43233;48.608;8.838;2023-08-30T01:57:48;12.70;89.00
32293;DHT22;43233;48.608;8.838;2023-08-30T02:00:14;12.60;89.10
32293;DHT22;43233;48.608;8.838;2023-08-30T02:02:40;12.60;89.10
32293;DHT22;43233;48.608;8.838;2023-08-30T02:05:06;12.50;89.30
32293;DHT22;43233;48.608;8.838;2023-08-30T02:10:16;12.50;89.40
32293;DHT22;43233;48.608;8.838;2023-08-30T02:12:49;12.50;89.50
32293;DHT22;43233;48.608;8.838;2023-08-30T02:15:16;12.50;89.40
32293;DHT22;43233;48.608;8.838;2023-08-30T02:17:43;12.50;89.10
32293;DHT22;43233;48.608;8.838;2023-08-30T02:20:09;12.50;89.00
32293;DHT22;43233;48.608;8.838;2023-08-30T02:22:35;12.50;88.70
32293;DHT22;43233;48.608;8.838;2023-08-30T02:25:01;12.50;88.50
32293;DHT22;43233;48.608;8.838;2023-08-30T02:27:33;12.40;88.30
32293;DHT22;43233;48.608;8.838;2023-08-30T02:29:59;12.40;88.40
32293;DHT22;43233;48.608;8.838;2023-08-30T02:32:25;12.40;88.20
32293;DHT22;43233;48.608;8.838;2023-08-30T02:34:51;12.40;88.50
32293;DHT22;43233;48.608;8.838;2023-08-30T02:37:18;12.40;88.60
32293;DHT22;43233;48.608;8.838;2023-08-30T02:39:43;12.40;88.60
32293;DHT22;43233;48.608;8.838;2023-08-30T02:42:09;12.40;88.60
32293;DHT22;43233;48.608;8.838;2023-08-30T02:44:35;12.40;88.60
32293;DHT22;43233;48.608;8.838;2023-08-30T02:47:01;12.40;88.70
32293;DHT22;43233;48.608;8.838;2023-08-30T02:49:26;12.40;88.80
32293;DHT22;43233;48.608;8.838;2023-08-30T02:51:52;12.40;89.00
32293;DHT22;43233;48.608;8.838;2023-08-30T02:54:17;12.40;89.00
32293;DHT22;43233;48.608;8.838;2023-08-30T02:56:44;12.40;89.20
32293;DHT22;43233;48.608;8.838;2023-08-30T02:59:10;12.40;89.40
32293;DHT22;43233;48.608;8.838;2023-08-30T03:01:37;12.40;89.50
32293;DHT22;43233;48.608;8.838;2023-08-30T03:04:05;12.40;89.70
32293;DHT22;43233;48.608;8.838;2023-08-30T03:06:32;12.40;90.00
32293;DHT22;43233;48.608;8.838;2023-08-30T03:08:58;12.40;89.90
32293;DHT22;43233;48.608;8.838;2023-08-30T03:11:24;12.50;90.10
32293;DHT22;43233;48.608;8.838;2023-08-30T03:13:49;12.40;90.00
32293;DHT22;43233;48.608;8.838;2023-08-30T03:16:17;12.40;90.20
32293;DHT22;43233;48.608;8.838;2023-08-30T03:18:43;12.50;90.20
32293;DHT22;43233;48.608;8.838;2023-08-30T03:21:09;12.50;90.40
32293;DHT22;43233;48.608;8.838;2023-08-30T03:23:35;12.40;90.40
32293;DHT22;43233;48.608;8.838;2023-08-30T03:26:15;12.40;90.20
32293;DHT22;43233;48.608;8.838;2023-08-30T03:28:43;12.40;90.10
32293;DHT22;43233;48.608;8.838;2023-08-30T03:31:18;12.40;90.00
32293;DHT22;43233;48.608;8.838;2023-08-30T03:33:45;12.40;90.00
32293;DHT22;43233;48.608;8.838;2023-08-30T03:36:13;12.40;90.10
32293;DHT22;43233;48.608;8.838;2023-08-30T03:38:39;12.40;89.80
32293;DHT22;43233;48.608;8.838;2023-08-30T03:41:05;12.40;89.70
32293;DHT22;43233;48.608;8.838;2023-08-30T03:43:31;12.30;89.80
32293;DHT22;43233;48.608;8.838;2023-08-30T03:45:57;12.30;90.10
32293;DHT22;43233;48.608;8.838;2023-08-30T03:48:23;12.20;90.20
32293;DHT22;43233;48.608;8.838;2023-08-30T03:50:49;12.30;90.40
32293;DHT22;43233;48.608;8.838;2023-08-30T03:53:14;12.30;90.20
32293;DHT22;43233;48.608;8.838;2023-08-30T03:55:40;12.20;90.20
32293;DHT22;43233;48.608;8.838;2023-08-30T03:58:07;12.20;90.50
32293;DHT22;43233;48.608;8.838;2023-08-30T04:00:33;12.20;90.50
32293;DHT22;43233;48.608;8.838;2023-08-30T04:03:01;12.20;90.50
32293;DHT22;43233;48.608;8.838;2023-08-30T04:05:26;12.20;90.50
32293;DHT22;43233;48.608;8.838;2023-08-30T04:07:52;12.20;90.50
32293;DHT22;43233;48.608;8.838;2023-08-30T04:10:18;12.20;90.60
32293;DHT22;43233;48.608;8.838;2023-08-30T04:12:43;12.30;90.60
32293;DHT22;43233;48.608;8.838;2023-08-30T04:15:09;12.30;90.50
32293;DHT22;43233;48.608;8.838;2023-08-30T04:17:37;12.30;90.30
32293;DHT22;43233;48.608;8.838;2023-08-30T04:20:03;12.30;90.10
32293;DHT22;43233;48.608;8.838;2023-08-30T04:22:29;12.30;90.00
32293;DHT22;43233;48.608;8.838;2023-08-30T04:24:55;12.30;89.80
32293;DHT22;43233;48.608;8.838;2023-08-30T04:27:20;12.30;89.40
32293;DHT22;43233;48.608;8.838;2023-08-30T04:29:46;12.30;89.30
32293;DHT22;43233;48.608;8.838;2023-08-30T04:32:13;12.20;89.10
32293;DHT22;43233;48.608;8.838;2023-08-30T04:34:38;12.20;89.00
32293;DHT22;43233;48.608;8.838;2023-08-30T04:37:04;12.20;88.80
32293;DHT22;43233;48.608;8.838;2023-08-30T04:39:29;12.20;88.40
32293;DHT22;43233;48.608;8.838;2023-08-30T04:41:55;12.20;88.30
32293;DHT22;43233;48.608;8.838;2023-08-30T04:44:21;12.10;88.40
32293;DHT22;43233;48.608;8.838;2023-08-30T04:46:50;12.10;88.30
32293;DHT22;43233;48.608;8.838;2023-08-30T04:49:17;12.10;88.40
32293;DHT22;43233;48.608;8.838;2023-08-30T04:51:43;12.10;88.50
32293;DHT22;43233;48.608;8.838;2023-08-30T04:54:09;12.10;88.30
32293;DHT22;43233;48.608;8.838;2023-08-30T04:56:35;12.10;88.20
32293;DHT22;43233;48.608;8.838;2023-08-30T04:59:00;12.10;88.20
32293;DHT22;43233;48.608;8.838;2023-08-30T05:01:29;12.10;88.40
32293;DHT22;43233;48.608;8.838;2023-08-30T05:03:55;12.10;88.50
32293;DHT22;43233;48.608;8.838;2023-08-30T05:06:21;12.10;88.50
32293;DHT22;43233;48.608;8.838;2023-08-30T05:08:47;12.10;88.70
32293;DHT22;43233;48.608;8.838;2023-08-30T05:11:12;12.10;88.60
32293;DHT22;43233;48.608;8.838;2023-08-30T05:13:38;12.10;88.70
32293;DHT22;43233;48.608;8.838;2023-08-30T05:16:04;12.10;88.00
32293;DHT22;43233;48.608;8.838;2023-08-30T05:18:30;12.10;88.00
32293;DHT22;43233;48.608;8.838;2023-08-30T05:20:56;12.10;88.10
32293;DHT22;43233;48.608;8.838;2023-08-30T05:23:21;12.10;88.40
32293;DHT22;43233;48.608;8.838;2023-08-30T05:25:47;12.10;88.40
32293;DHT22;43233;48.608;8.838;2023-08-30T05:28:13;12.00;88.60
32293;DHT22;43233;48.608;8.838;2023-08-30T05:30:42;12.10;89.00
32293;DHT22;43233;48.608;8.838;2023-08-30T05:33:07;12.10;88.80
32293;DHT22;43233;48.608;8.838;2023-08-30T05:35:33;12.10;88.80
32293;DHT22;43233;48.608;8.838;2023-08-30T05:37:59;12.10;89.10
32293;DHT22;43233;48.608;8.838;2023-08-30T05:40:25;12.10;89.60
32293;DHT22;43233;48.608;8.838;2023-08-30T05:42:50;12.10;89.70
32293;DHT22;43233;48.608;8.838;2023-08-30T05:45:16;12.10;90.20
32293;DHT22;43233;48.608;8.838;2023-08-30T05:47:42;12.10;89.60
32293;DHT22;43233;48.608;8.838;2023-08-30T05:50:08;12.10;90.20
32293;DHT22;43233;48.608;8.838;2023-08-30T05:52:34;12.10;90.00
32293;DHT22;43233;48.608;8.838;2023-08-30T05:54:59;12.10;89.50
32293;DHT22;43233;48.608;8.838;2023-08-30T05:57:25;12.10;89.70
32293;DHT22;43233;48.608;8.838;2023-08-30T05:59:52;12.10;89.70
32293;DHT22;43233;48.608;8.838;2023-08-30T06:02:17;12.10;90.20
32293;DHT22;43233;48.608;8.838;2023-08-30T06:04:43;12.20;89.90
32293;DHT22;43233;48.608;8.838;2023-08-30T06:07:08;12.10;90.20
32293;DHT22;43233;48.608;8.838;2023-08-30T06:09:34;12.20;90.50
32293;DHT22;43233;48.608;8.838;2023-08-30T06:12:00;12.20;90.80
32293;DHT22;43233;48.608;8.838;2023-08-30T06:14:26;12.20;90.90
32293;DHT22;43233;48.608;8.838;2023-08-30T06:16:52;12.20;90.70
32293;DHT22;43233;48.608;8.838;2023-08-30T06:19:17;12.30;90.90
32293;DHT22;43233;48.608;8.838;2023-08-30T06:21:43;12.30;90.90
32293;DHT22;43233;48.608;8.838;2023-08-30T06:24:09;12.30;91.00
32293;DHT22;43233;48.608;8.838;2023-08-30T06:26:35;12.40;91.00
32293;DHT22;43233;48.608;8.838;2023-08-30T06:29:00;12.40;90.90
32293;DHT22;43233;48.608;8.838;2023-08-30T06:31:26;12.50;90.30
32293;DHT22;43233;48.608;8.838;2023-08-30T06:33:53;12.50;90.00
32293;DHT22;43233;48.608;8.838;2023-08-30T06:36:18;12.50;90.00
32293;DHT22;43233;48.608;8.838;2023-08-30T06:38:44;12.50;90.20
32293;DHT22;43233;48.608;8.838;2023-08-30T06:41:10;12.50;90.00
32293;DHT22;43233;48.608;8.838;2023-08-30T06:43:35;12.50;90.00
32293;DHT22;43233;48.608;8.838;2023-08-30T06:46:01;12.60;90.00
32293;DHT22;43233;48.608;8.838;2023-08-30T06:48:27;12.60;89.90
32293;DHT22;43233;48.608;8.838;2023-08-30T06:50:53;12.60;90.30
32293;DHT22;43233;48.608;8.838;2023-08-30T06:53:18;12.70;90.50
32293;DHT22;43233;48.608;8.838;2023-08-30T06:55:44;12.70;90.50
32293;DHT22;43233;48.608;8.838;2023-08-30T06:58:09;12.70;90.20
32293;DHT22;43233;48.608;8.838;2023-08-30T07:00:35;12.80;90.40
32293;DHT22;43233;48.608;8.838;2023-08-30T07:03:00;12.80;90.10
32293;DHT22;43233;48.608;8.838;2023-08-30T07:05:26;12.80;89.70
32293;DHT22;43233;48.608;8.838;2023-08-30T07:07:52;12.90;89.80
32293;DHT22;43233;48.608;8.838;2023-08-30T07:10:17;12.90;90.20
32293;DHT22;43233;48.608;8.838;2023-08-30T07:12:43;13.00;89.40
32293;DHT22;43233;48.608;8.838;2023-08-30T07:15:10;13.00;89.40
32293;DHT22;43233;48.608;8.838;2023-08-30T07:17:36;12.90;89.70
32293;DHT22;43233;48.608;8.838;2023-08-30T07:20:01;13.00;89.10
32293;DHT22;43233;48.608;8.838;2023-08-30T07:22:28;13.00;89.00
32293;DHT22;43233;48.608;8.838;2023-08-30T07:24:54;13.00;89.40
32293;DHT22;43233;48.608;8.838;2023-08-30T07:27:20;13.10;89.00
32293;DHT22;43233;48.608;8.838;2023-08-30T07:29:45;13.10;89.00
32293;DHT22;43233;48.608;8.838;2023-08-30T07:32:11;13.10;89.00
32293;DHT22;43233;48.608;8.838;2023-08-30T07:34:37;13.20;88.90
32293;DHT22;43233;48.608;8.838;2023-08-30T07:37:03;13.20;88.90
32293;DHT22;43233;48.608;8.838;2023-08-30T07:39:29;13.20;88.80
32293;DHT22;43233;48.608;8.838;2023-08-30T07:41:54;13.30;88.80
32293;DHT22;43233;48.608;8.838;2023-08-30T07:44:23;13.30;88.80
32293;DHT22;43233;48.608;8.838;2023-08-30T07:46:51;13.40;88.50
32293;DHT22;43233;48.608;8.838;2023-08-30T07:49:18;13.40;88.40
32293;DHT22;43233;48.608;8.838;2023-08-30T07:51:43;13.50;88.30
32293;DHT22;43233;48.608;8.838;2023-08-30T07:54:09;13.50;87.90
32293;DHT22;43233;48.608;8.838;2023-08-30T07:56:35;13.50;88.00
32293;DHT22;43233;48.608;8.838;2023-08-30T07:59:01;13.60;88.20
32293;DHT22;43233;48.608;8.838;2023-08-30T08:01:27;13.60;88.10
32293;DHT22;43233;48.608;8.838;2023-08-30T08:03:53;13.70;88.00
32293;DHT22;43233;48.608;8.838;2023-08-30T08:06:28;13.70;87.80
32293;DHT22;43233;48.608;8.838;2023-08-30T08:08:53;13.80;87.80
32293;DHT22;43233;48.608;8.838;2023-08-30T08:11:19;13.80;87.70
32293;DHT22;43233;48.608;8.838;2023-08-30T08:13:45;13.90;87.60
32293;DHT22;43233;48.608;8.838;2023-08-30T08:16:11;14.00;87.10
32293;DHT22;43233;48.608;8.838;2023-08-30T08:18:36;14.00;87.10
32293;DHT22;43233;48.608;8.838;2023-08-30T08:21:02;14.10;86.80
32293;DHT22;43233;48.608;8.838;2023-08-30T08:23:28;14.10;86.80
32293;DHT22;43233;48.608;8.838;2023-08-30T08:26:00;14.30;86.10
32293;DHT22;43233;48.608;8.838;2023-08-30T08:28:26;14.30;85.40
32293;DHT22;43233;48.608;8.838;2023-08-30T08:30:52;14.40;85.00
32293;DHT22;43233;48.608;8.838;2023-08-30T08:33:18;14.50;84.10
32293;DHT22;43233;48.608;8.838;2023-08-30T08:35:44;14.50;83.80
32293;DHT22;43233;48.608;8.838;2023-08-30T08:38:10;14.50;82.40
32293;DHT22;43233;48.608;8.838;2023-08-30T08:40:39;14.60;82.70
32293;DHT22;43233;48.608;8.838;2023-08-30T08:43:05;14.60;82.20
32293;DHT22;43233;48.608;8.838;2023-08-30T08:45:35;14.70;81.50
32293;DHT22;43233;48.608;8.838;2023-08-30T08:48:04;14.80;81.50
32293;DHT22;43233;48.608;8.838;2023-08-30T08:50:30;14.80;81.50
32293;DHT22;43233;48.608;8.838;2023-08-30T08:52:56;14.80;81.20
32293;DHT22;43233;48.608;8.838;2023-08-30T08:55:22;14.90;81.10
32293;DHT22;43233;48.608;8.838;2023-08-30T08:57:48;14.90;81.20
32293;DHT22;43233;48.608;8.838;2023-08-30T09:00:14;15.00;81.30
32293;DHT22;43233;48.608;8.838;2023-08-30T09:02:42;15.20;79.30
32293;DHT22;43233;48.608;8.838;2023-08-30T09:05:08;15.20;79.40
32293;DHT22;43233;48.608;8.838;2023-08-30T09:07:38;15.20;79.90
32293;DHT22;43233;48.608;8.838;2023-08-30T09:10:04;15.20;79.60
32293;DHT22;43233;48.608;8.838;2023-08-30T09:12:33;15.30;79.40
32293;DHT22;43233;48.608;8.838;2023-08-30T09:14:59;15.40;79.20
32293;DHT22;43233;48.608;8.838;2023-08-30T09:17:38;15.50;79.40
32293;DHT22;43233;48.608;8.838;2023-08-30T09:20:11;15.60;79.20
32293;DHT22;43233;48.608;8.838;2023-08-30T09:22:43;15.60;79.00
32293;DHT22;43233;48.608;8.838;2023-08-30T09:25:10;15.80;78.40
32293;DHT22;43233;48.608;8.838;2023-08-30T09:27:37;15.80;78.00
32293;DHT22;43233;48.608;8.838;2023-08-30T09:30:07;15.90;77.70
32293;DHT22;43233;48.608;8.838;2023-08-30T09:32:41;16.00;78.30
32293;DHT22;43233;48.608;8.838;2023-08-30T09:35:08;16.10;76.80
32293;DHT22;43233;48.608;8.838;2023-08-30T09:37:34;16.10;77.10
32293;DHT22;43233;48.608;8.838;2023-08-30T09:40:00;16.30;75.40
32293;DHT22;43233;48.608;8.838;2023-08-30T09:42:26;16.40;73.70
32293;DHT22;43233;48.608;8.838;2023-08-30T09:44:52;16.60;71.50
32293;DHT22;43233;48.608;8.838;2023-08-30T09:47:18;16.60;72.20
32293;DHT22;43233;48.608;8.838;2023-08-30T09:49:47;16.60;72.30
32293;DHT22;43233;48.608;8.838;2023-08-30T09:52:15;16.70;71.40
32293;DHT22;43233;48.608;8.838;2023-08-30T09:54:45;16.70;72.60
32293;DHT22;43233;48.608;8.838;2023-08-30T09:57:12;16.80;71.40
32293;DHT22;43233;48.608;8.838;2023-08-30T09:59:45;16.90;71.50
32293;DHT22;43233;48.608;8.838;2023-08-30T10:02:15;16.90;69.80
32293;DHT22;43233;48.608;8.838;2023-08-30T10:04:41;17.10;69.40
32293;DHT22;43233;48.608;8.838;2023-08-30T10:07:08;17.10;66.20
32293;DHT22;43233;48.608;8.838;2023-08-30T10:09:40;17.20;64.20
32293;DHT22;43233;48.608;8.838;2023-08-30T10:12:06;17.30;65.60
32293;DHT22;43233;48.608;8.838;2023-08-30T10:14:32;17.40;66.50
32293;DHT22;43233;48.608;8.838;2023-08-30T10:17:02;17.40;64.50
32293;DHT22;43233;48.608;8.838;2023-08-30T10:19:28;17.50;63.40
32293;DHT22;43233;48.608;8.838;2023-08-30T10:22:04;17.60;62.20
32293;DHT22;43233;48.608;8.838;2023-08-30T10:24:43;17.80;62.40
32293;DHT22;43233;48.608;8.838;2023-08-30T10:27:11;17.90;60.10
32293;DHT22;43233;48.608;8.838;2023-08-30T10:29:38;18.00;59.20
32293;DHT22;43233;48.608;8.838;2023-08-30T10:32:05;18.00;56.90
32293;DHT22;43233;48.608;8.838;2023-08-30T10:34:35;18.00;59.20
32293;DHT22;43233;48.608;8.838;2023-08-30T10:37:03;18.10;56.00
32293;DHT22;43233;48.608;8.838;2023-08-30T10:39:40;18.20;57.30
32293;DHT22;43233;48.608;8.838;2023-08-30T10:42:16;18.30;56.50
32293;DHT22;43233;48.608;8.838;2023-08-30T10:44:48;18.40;56.80
32293;DHT22;43233;48.608;8.838;2023-08-30T10:47:28;18.50;57.10
32293;DHT22;43233;48.608;8.838;2023-08-30T10:50:00;18.60;54.10
32293;DHT22;43233;48.608;8.838;2023-08-30T10:52:27;18.70;55.60
32293;DHT22;43233;48.608;8.838;2023-08-30T10:54:53;18.90;52.10
32293;DHT22;43233;48.608;8.838;2023-08-30T10:57:29;19.00;52.60
32293;DHT22;43233;48.608;8.838;2023-08-30T11:02:32;19.10;50.40
32293;DHT22;43233;48.608;8.838;2023-08-30T11:04:59;19.30;50.30
32293;DHT22;43233;48.608;8.838;2023-08-30T11:07:25;19.40;51.50
32293;DHT22;43233;48.608;8.838;2023-08-30T11:09:55;19.40;51.60
32293;DHT22;43233;48.608;8.838;2023-08-30T11:12:20;19.50;51.10
32293;DHT22;43233;48.608;8.838;2023-08-30T11:14:48;19.40;52.10
32293;DHT22;43233;48.608;8.838;2023-08-30T11:17:16;19.50;53.30
32293;DHT22;43233;48.608;8.838;2023-08-30T11:19:43;19.50;53.70
32293;DHT22;43233;48.608;8.838;2023-08-30T11:22:09;19.50;53.80
32293;DHT22;43233;48.608;8.838;2023-08-30T11:24:35;19.30;49.90
32293;DHT22;43233;48.608;8.838;2023-08-30T11:27:00;18.90;50.90
32293;DHT22;43233;48.608;8.838;2023-08-30T11:29:27;18.30;52.40
32293;DHT22;43233;48.608;8.838;2023-08-30T11:31:52;17.90;57.10
32293;DHT22;43233;48.608;8.838;2023-08-30T11:34:22;17.60;60.00
32293;DHT22;43233;48.608;8.838;2023-08-30T11:36:48;17.30;62.50
32293;DHT22;43233;48.608;8.838;2023-08-30T11:39:16;17.10;63.60
32293;DHT22;43233;48.608;8.838;2023-08-30T11:41:43;16.80;66.00
32293;DHT22;43233;48.608;8.838;2023-08-30T11:44:09;16.70;68.00
32293;DHT22;43233;48.608;8.838;2023-08-30T11:46:35;16.70;68.50
32293;DHT22;43233;48.608;8.838;2023-08-30T11:49:00;16.60;69.60
32293;DHT22;43233;48.608;8.838;2023-08-30T11:51:26;16.70;69.70
32293;DHT22;43233;48.608;8.838;2023-08-30T11:53:52;16.80;69.80
32293;DHT22;43233;48.608;8.838;2023-08-30T11:56:19;16.80;69.90
32293;DHT22;43233;48.608;8.838;2023-08-30T11:58:45;16.80;70.20
32293;DHT22;43233;48.608;8.838;2023-08-30T12:01:12;16.90;70.40
32293;DHT22;43233;48.608;8.838;2023-08-30T12:03:38;17.00;71.40
32293;DHT22;43233;48.608;8.838;2023-08-30T12:06:10;17.00;70.10
32293;DHT22;43233;48.608;8.838;2023-08-30T12:08:36;17.10;71.70
32293;DHT22;43233;48.608;8.838;2023-08-30T12:11:02;17.20;72.40
32293;DHT22;43233;48.608;8.838;2023-08-30T12:13:34;17.40;75.70
32293;DHT22;43233;48.608;8.838;2023-08-30T12:16:01;17.60;75.50
32293;DHT22;43233;48.608;8.838;2023-08-30T12:18:37;17.70;72.80
32293;DHT22;43233;48.608;8.838;2023-08-30T12:21:04;17.90;71.90
32293;DHT22;43233;48.608;8.838;2023-08-30T12:23:31;18.00;71.20
32293;DHT22;43233;48.608;8.838;2023-08-30T12:26:05;18.30;73.60
32293;DHT22;43233;48.608;8.838;2023-08-30T12:28:33;18.40;70.70
32293;DHT22;43233;48.608;8.838;2023-08-30T12:31:00;18.60;68.90
32293;DHT22;43233;48.608;8.838;2023-08-30T12:33:26;18.70;66.30
32293;DHT22;43233;48.608;8.838;2023-08-30T12:35:53;18.80;65.50
32293;DHT22;43233;48.608;8.838;2023-08-30T12:38:19;18.90;64.80
32293;DHT22;43233;48.608;8.838;2023-08-30T12:40:49;19.00;62.80
32293;DHT22;43233;48.608;8.838;2023-08-30T12:43:16;19.00;62.50
32293;DHT22;43233;48.608;8.838;2023-08-30T12:45:43;19.10;61.60
32293;DHT22;43233;48.608;8.838;2023-08-30T12:48:10;19.10;61.60
32293;DHT22;43233;48.608;8.838;2023-08-30T12:50:37;19.20;61.60
32293;DHT22;43233;48.608;8.838;2023-08-30T12:53:06;19.30;61.50
32293;DHT22;43233;48.608;8.838;2023-08-30T12:55:33;19.50;61.30
32293;DHT22;43233;48.608;8.838;2023-08-30T12:58:00;19.70;59.40
32293;DHT22;43233;48.608;8.838;2023-08-30T13:00:27;19.90;57.80
32293;DHT22;43233;48.608;8.838;2023-08-30T13:02:53;20.10;57.50
32293;DHT22;43233;48.608;8.838;2023-08-30T13:05:18;20.20;56.20
32293;DHT22;43233;48.608;8.838;2023-08-30T13:07:44;20.30;56.80
32293;DHT22;43233;48.608;8.838;2023-08-30T13:10:10;20.40;56.30
32293;DHT22;43233;48.608;8.838;2023-08-30T13:12:37;20.60;53.80
32293;DHT22;43233;48.608;8.838;2023-08-30T13:15:06;20.80;52.30
32293;DHT22;43233;48.608;8.838;2023-08-30T13:17:32;21.00;51.90
32293;DHT22;43233;48.608;8.838;2023-08-30T13:19:57;21.10;50.50
32293;DHT22;43233;48.608;8.838;2023-08-30T13:22:24;21.30;49.50
32293;DHT22;43233;48.608;8.838;2023-08-30T13:24:50;21.40;48.60
32293;DHT22;43233;48.608;8.838;2023-08-30T13:27:16;21.50;46.10
32293;DHT22;43233;48.608;8.838;2023-08-30T13:29:41;21.70;45.50
32293;DHT22;43233;48.608;8.838;2023-08-30T13:32:07;21.90;44.90
32293;DHT22;43233;48.608;8.838;2023-08-30T13:34:33;22.00;43.00
32293;DHT22;43233;48.608;8.838;2023-08-30T13:36:58;22.10;41.50
32293;DHT22;43233;48.608;8.838;2023-08-30T13:39:24;22.20;41.60
32293;DHT22;43233;48.608;8.838;2023-08-30T13:41:50;22.30;41.90
32293;DHT22;43233;48.608;8.838;2023-08-30T13:44:15;22.50;40.80
32293;DHT22;43233;48.608;8.838;2023-08-30T13:46:42;22.70;41.20
32293;DHT22;43233;48.608;8.838;2023-08-30T13:49:08;23.00;40.80
32293;DHT22;43233;48.608;8.838;2023-08-30T13:51:34;23.10;38.70
32293;DHT22;43233;48.608;8.838;2023-08-30T13:54:00;23.10;39.60
32293;DHT22;43233;48.608;8.838;2023-08-30T13:56:26;23.10;39.00
32293;DHT22;43233;48.608;8.838;2023-08-30T13:58:51;23.00;38.60
32293;DHT22;43233;48.608;8.838;2023-08-30T14:01:17;22.80;38.50
32293;DHT22;43233;48.608;8.838;2023-08-30T14:03:44;22.70;36.90
32293;DHT22;43233;48.608;8.838;2023-08-30T14:06:10;22.40;37.20
32293;DHT22;43233;48.608;8.838;2023-08-30T14:08:35;22.20;38.00
32293;DHT22;43233;48.608;8.838;2023-08-30T14:11:01;21.90;39.80
32293;DHT22;43233;48.608;8.838;2023-08-30T14:13:29;21.70;41.80
32293;DHT22;43233;48.608;8.838;2023-08-30T14:16:01;21.50;45.00
32293;DHT22;43233;48.608;8.838;2023-08-30T14:18:29;21.30;44.00
32293;DHT22;43233;48.608;8.838;2023-08-30T14:21:00;21.30;45.00
32293;DHT22;43233;48.608;8.838;2023-08-30T14:23:28;21.10;43.90
32293;DHT22;43233;48.608;8.838;2023-08-30T14:26:04;20.90;43.80
32293;DHT22;43233;48.608;8.838;2023-08-30T14:28:39;20.80;43.50
32293;DHT22;43233;48.608;8.838;2023-08-30T14:31:08;20.70;44.40
32293;DHT22;43233;48.608;8.838;2023-08-30T14:33:35;20.70;43.40
32293;DHT22;43233;48.608;8.838;2023-08-30T14:36:01;20.60;42.70
32293;DHT22;43233;48.608;8.838;2023-08-30T14:38:29;20.50;43.20
32293;DHT22;43233;48.608;8.838;2023-08-30T14:40:56;20.40;42.80
32293;DHT22;43233;48.608;8.838;2023-08-30T14:43:22;20.30;44.20
32293;DHT22;43233;48.608;8.838;2023-08-30T14:45:48;20.30;43.90
32293;DHT22;43233;48.608;8.838;2023-08-30T14:48:14;20.20;44.00
32293;DHT22;43233;48.608;8.838;2023-08-30T14:50:39;20.20;44.00
32293;DHT22;43233;48.608;8.838;2023-08-30T14:53:08;20.20;43.70
32293;DHT22;43233;48.608;8.838;2023-08-30T14:55:34;20.10;44.00
32293;DHT22;43233;48.608;8.838;2023-08-30T14:58:00;20.10;44.70
32293;DHT22;43233;48.608;8.838;2023-08-30T15:00:26;20.00;44.80
32293;DHT22;43233;48.608;8.838;2023-08-30T15:02:51;20.20;46.40
32293;DHT22;43233;48.608;8.838;2023-08-30T15:05:18;20.20;46.20
32293;DHT22;43233;48.608;8.838;2023-08-30T15:07:43;20.30;46.80
32293;DHT22;43233;48.608;8.838;2023-08-30T15:10:09;20.30;45.90
32293;DHT22;43233;48.608;8.838;2023-08-30T15:12:36;20.40;46.00
32293;DHT22;43233;48.608;8.838;2023-08-30T15:15:02;20.60;45.20
32293;DHT22;43233;48.608;8.838;2023-08-30T15:17:28;21.00;43.00
32293;DHT22;43233;48.608;8.838;2023-08-30T15:19:54;21.50;42.20
32293;DHT22;43233;48.608;8.838;2023-08-30T15:22:20;22.00;41.50
32293;DHT22;43233;48.608;8.838;2023-08-30T15:24:45;22.30;40.50
32293;DHT22;43233;48.608;8.838;2023-08-30T15:27:11;22.30;40.40
32293;DHT22;43233;48.608;8.838;2023-08-30T15:29:37;22.30;40.50
32293;DHT22;43233;48.608;8.838;2023-08-30T15:32:03;22.30;38.80
32293;DHT22;43233;48.608;8.838;2023-08-30T15:34:31;22.10;39.30
32293;DHT22;43233;48.608;8.838;2023-08-30T15:36:56;22.10;39.50